WSSS METAR and TAF | Updated Today

WSSS METAR

Singapore Changi Airport

Observation time: 4 min. ago

WSSS 032200Z 33005KT 290V350 9999 FEW018 BKN300 26/23 Q1011 NOSIG

Need help? Read our tutorial on how to read METARs or read the parsed version below.

Singapore Changi Airport (WSSS) METAR

  • Weather conditions on Fri, 03 Dec 2021 22:00:00 +0000 (4 min. ago):
  • Present conditions: Dry
  • Clouds: A few at 549 meters; broken sky at 9144 meters
  • Visibility: Greater than 10 km
  • Wind: 330 degrees at 5 knots
  • Temperature: 26 celsius
  • Dew point: 23 celsius
  • Pressure: 1011 millibars
  • Remarks: None


Useful to know...

WSSS TAF

Singapore Changi Airport

TAF WSSS 031700Z 0318/0500 01012KT 9999 FEW015 SCT020
Observation time: 5:04 hr. ago
Need help? Read our tutorial on how to read TAFs or read the parsed version below.

Parsed version of TAF for Singapore Changi Airport (WSSS)

  • From 03 December at 18:00 UTC, to day 05 of the month at 00:00 UTC
  • Clouds: A few at 457 meters; scattered at 610 meters
  • Visibility: Greater than 10 km
  • Wind: 10 degrees at 12